createdAt,value
2023-01-15T00:00:40.668Z,5.38
2023-01-15T00:03:28.774Z,5.43
2023-01-15T00:05:57.011Z,5.44
2023-01-15T00:08:24.943Z,5.60
2023-01-15T00:10:53.119Z,5.55
2023-01-15T00:13:22.410Z,5.54
2023-01-15T00:15:50.664Z,5.55
2023-01-15T00:18:18.681Z,5.61
2023-01-15T00:20:46.956Z,5.71
2023-01-15T00:23:35.216Z,5.61
2023-01-15T00:26:20.960Z,5.59
2023-01-15T00:28:50.825Z,5.56
2023-01-15T00:31:19.487Z,5.58
2023-01-15T00:33:47.458Z,5.59
2023-01-15T00:36:15.722Z,5.62
2023-01-15T00:38:43.709Z,5.66
2023-01-15T00:41:12.067Z,5.98
2023-01-15T00:43:39.971Z,6.18
2023-01-15T00:46:09.642Z,6.23
2023-01-15T00:48:38.223Z,6.39
2023-01-15T00:51:06.570Z,6.13
2023-01-15T00:53:34.590Z,5.96
2023-01-15T00:56:02.969Z,5.84
2023-01-15T00:58:31.018Z,5.78
2023-01-15T01:01:01.027Z,5.81
2023-01-15T01:03:31.018Z,5.99
2023-01-15T01:06:01.871Z,5.89
2023-01-15T01:08:30.026Z,5.98
2023-01-15T01:11:05.403Z,5.99
2023-01-15T01:13:33.742Z,5.74
2023-01-15T01:16:02.677Z,5.62
2023-01-15T01:18:32.075Z,5.57
2023-01-15T01:21:00.223Z,5.56
2023-01-15T01:23:28.069Z,5.51
2023-01-15T01:25:56.371Z,5.53
2023-01-15T01:28:24.289Z,5.54
2023-01-15T01:30:52.462Z,5.54
2023-01-15T01:33:20.383Z,5.58
2023-01-15T01:35:51.198Z,5.61
2023-01-15T01:38:19.108Z,5.68
2023-01-15T01:40:47.632Z,5.69
2023-01-15T01:43:18.832Z,5.70
2023-01-15T01:45:47.152Z,5.72
2023-01-15T01:48:16.264Z,5.71
2023-01-15T01:50:45.040Z,5.76
2023-01-15T01:53:17.146Z,5.75
2023-01-15T01:55:45.565Z,5.80
2023-01-15T01:58:14.945Z,5.83
2023-01-15T02:00:46.024Z,5.84
2023-01-15T02:03:14.347Z,5.79
2023-01-15T02:05:45.038Z,5.89
2023-01-15T02:08:14.367Z,5.86
2023-01-15T02:10:42.666Z,5.88
2023-01-15T02:13:12.368Z,5.90
2023-01-15T02:15:44.940Z,5.92
2023-01-15T02:18:18.071Z,5.95
2023-01-15T02:20:49.541Z,5.93
2023-01-15T02:23:29.684Z,5.94
2023-01-15T02:26:13.111Z,5.92
2023-01-15T02:28:45.753Z,5.95
2023-01-15T02:31:17.450Z,5.94
2023-01-15T02:33:49.565Z,5.97
2023-01-15T02:36:19.840Z,5.96
2023-01-15T02:38:50.039Z,5.97
2023-01-15T02:41:20.420Z,5.98
2023-01-15T02:43:51.705Z,5.96
2023-01-15T02:46:21.123Z,5.97
2023-01-15T02:48:52.490Z,6.00
2023-01-15T02:51:23.355Z,6.03
2023-01-15T02:53:52.496Z,6.02
2023-01-15T02:56:22.077Z,6.05
2023-01-15T02:58:53.991Z,6.07
2023-01-15T03:01:26.084Z,6.08
2023-01-15T03:03:57.922Z,6.08
2023-01-15T03:06:28.928Z,6.09
2023-01-15T03:08:56.980Z,6.11
2023-01-15T03:11:25.347Z,6.14
2023-01-15T03:14:02.264Z,6.16
2023-01-15T03:16:36.151Z,6.18
2023-01-15T03:19:07.114Z,6.18
2023-01-15T03:21:40.941Z,6.18
2023-01-15T03:24:11.366Z,6.19
2023-01-15T03:26:39.568Z,6.19
2023-01-15T03:29:09.633Z,6.24
2023-01-15T03:31:38.033Z,6.27
2023-01-15T03:34:07.250Z,6.26
2023-01-15T03:36:35.582Z,6.27
2023-01-15T03:39:03.677Z,6.28
2023-01-15T03:41:40.163Z,6.32
2023-01-15T03:44:16.351Z,6.29
2023-01-15T03:46:52.170Z,6.26
2023-01-15T03:49:24.626Z,6.18
2023-01-15T03:52:00.303Z,6.10
2023-01-15T03:54:33.560Z,6.11
2023-01-15T03:57:07.054Z,6.01
2023-01-15T03:59:39.075Z,5.98
2023-01-15T04:02:10.650Z,5.91
2023-01-15T04:04:39.789Z,5.84
2023-01-15T04:07:08.004Z,5.78
2023-01-15T04:09:39.143Z,5.78
2023-01-15T04:12:07.768Z,5.71
2023-01-15T04:14:37.071Z,5.65
2023-01-15T04:17:05.263Z,5.61
2023-01-15T04:19:33.182Z,5.55
2023-01-15T04:22:01.442Z,5.56
2023-01-15T04:24:29.303Z,5.55
2023-01-15T04:26:57.555Z,5.51
2023-01-15T04:29:26.379Z,5.51
2023-01-15T04:31:57.895Z,5.50
2023-01-15T04:34:26.720Z,5.52
2023-01-15T04:36:55.451Z,5.51
2023-01-15T04:39:23.478Z,5.48
2023-01-15T04:42:11.303Z,5.48
2023-01-15T04:44:39.800Z,5.43
2023-01-15T04:47:09.546Z,5.44
2023-01-15T04:49:37.470Z,5.46
2023-01-15T04:52:05.696Z,5.45
2023-01-15T04:54:33.597Z,5.43
2023-01-15T04:57:01.889Z,5.43
2023-01-15T04:59:29.901Z,5.48
2023-01-15T05:02:04.718Z,5.51
2023-01-15T05:04:38.010Z,5.45
2023-01-15T05:07:06.615Z,5.43
2023-01-15T05:09:35.205Z,5.49
2023-01-15T05:12:03.734Z,5.51
2023-01-15T05:14:31.641Z,5.53
2023-01-15T05:17:00.096Z,5.57
2023-01-15T05:19:28.146Z,5.57
2023-01-15T05:21:57.699Z,5.59
2023-01-15T05:24:25.629Z,5.60
2023-01-15T05:26:55.223Z,5.68
2023-01-15T05:29:23.222Z,5.71
2023-01-15T05:31:51.400Z,5.75
2023-01-15T05:34:19.232Z,5.76
2023-01-15T05:36:48.028Z,5.74
2023-01-15T05:39:17.261Z,5.72
2023-01-15T05:41:51.581Z,5.75
2023-01-15T05:44:21.474Z,5.74
2023-01-15T05:46:52.471Z,5.75
2023-01-15T05:49:21.283Z,5.77
2023-01-15T05:51:49.999Z,5.76
2023-01-15T05:54:22.415Z,5.79
2023-01-15T05:56:50.641Z,5.81
2023-01-15T05:59:19.231Z,5.83
2023-01-15T06:01:47.876Z,5.83
2023-01-15T06:04:17.871Z,5.84
2023-01-15T06:06:46.038Z,5.84
2023-01-15T06:09:13.997Z,5.88
2023-01-15T06:11:43.554Z,5.88
2023-01-15T06:14:12.280Z,5.85
2023-01-15T06:16:41.446Z,5.85
2023-01-15T06:19:11.217Z,5.86
2023-01-15T06:21:39.591Z,5.87
2023-01-15T06:24:10.196Z,5.84
2023-01-15T06:26:38.719Z,5.88
2023-01-15T06:29:07.974Z,5.89
2023-01-15T06:31:36.226Z,5.89
2023-01-15T06:34:04.313Z,5.89
2023-01-15T06:36:35.353Z,5.89
2023-01-15T06:39:05.331Z,5.91
2023-01-15T06:41:56.251Z,5.90
2023-01-15T06:44:43.094Z,5.87
2023-01-15T06:47:24.211Z,5.89
2023-01-15T06:49:53.778Z,5.90
2023-01-15T06:52:22.493Z,5.93
2023-01-15T06:54:50.388Z,5.95
2023-01-15T06:57:19.005Z,5.94
2023-01-15T06:59:48.504Z,5.96
2023-01-15T07:02:18.077Z,5.99
2023-01-15T07:04:46.414Z,5.99
2023-01-15T07:07:14.887Z,5.98
2023-01-15T07:09:43.024Z,6.03
2023-01-15T07:12:11.561Z,6.03
2023-01-15T07:14:39.418Z,6.00
2023-01-15T07:17:09.337Z,6.02
2023-01-15T07:19:37.331Z,6.04
2023-01-15T07:22:05.877Z,6.08
2023-01-15T07:24:33.856Z,6.03
2023-01-15T07:27:04.381Z,6.09
2023-01-15T07:29:32.308Z,6.08
2023-01-15T07:32:03.137Z,6.14
2023-01-15T07:34:32.415Z,6.12
2023-01-15T07:37:01.239Z,6.13
2023-01-15T07:39:31.621Z,6.14
2023-01-15T07:42:17.306Z,6.18
2023-01-15T07:45:02.439Z,6.17
2023-01-15T07:47:48.142Z,6.20
2023-01-15T07:50:18.408Z,6.18
2023-01-15T07:52:46.687Z,6.20
2023-01-15T07:55:15.006Z,6.20
2023-01-15T07:57:43.963Z,6.23
2023-01-15T08:00:13.317Z,6.23
2023-01-15T08:02:41.931Z,6.22
2023-01-15T08:05:11.688Z,6.24
2023-01-15T08:07:41.848Z,6.27
2023-01-15T08:10:10.818Z,6.25
2023-01-15T08:12:57.630Z,6.26
2023-01-15T08:15:25.737Z,6.31
2023-01-15T08:17:53.968Z,6.21
2023-01-15T08:20:23.580Z,5.84
2023-01-15T08:22:53.797Z,5.60
2023-01-15T08:25:22.746Z,5.43
2023-01-15T08:27:51.355Z,5.25
2023-01-15T08:30:20.468Z,5.18
2023-01-15T08:32:48.602Z,5.05
2023-01-15T08:35:16.866Z,5.06
2023-01-15T08:37:45.152Z,4.99
2023-01-15T08:40:15.119Z,4.97
2023-01-15T08:42:43.253Z,4.96
2023-01-15T08:45:11.590Z,5.01
2023-01-15T08:47:39.889Z,4.99
2023-01-15T08:50:08.822Z,4.93
2023-01-15T08:52:38.009Z,4.91
2023-01-15T08:55:06.544Z,4.93
2023-01-15T08:57:36.365Z,4.98
2023-01-15T09:00:04.755Z,4.93
2023-01-15T09:02:32.917Z,4.91
2023-01-15T09:05:01.452Z,4.93
2023-01-15T09:07:30.174Z,4.93
2023-01-15T09:09:58.098Z,4.96
2023-01-15T09:12:27.435Z,4.94
2023-01-15T09:15:02.933Z,4.90
2023-01-15T09:17:32.928Z,4.84
2023-01-15T09:20:01.277Z,4.89
2023-01-15T09:22:31.319Z,4.92
2023-01-15T09:24:59.511Z,4.96
2023-01-15T09:27:28.191Z,4.93
2023-01-15T09:29:57.908Z,4.92
2023-01-15T09:32:26.065Z,4.93
2023-01-15T09:34:54.828Z,4.92
2023-01-15T09:37:23.003Z,4.98
2023-01-15T09:39:51.096Z,5.00
2023-01-15T09:42:29.917Z,5.07
2023-01-15T09:45:15.674Z,5.02
2023-01-15T09:47:52.258Z,5.00
2023-01-15T09:50:24.909Z,5.04
2023-01-15T09:53:06.374Z,5.01
2023-01-15T09:55:35.764Z,5.10
2023-01-15T09:58:06.088Z,5.13
2023-01-15T10:00:36.902Z,5.09
2023-01-15T10:03:10.156Z,5.08
2023-01-15T10:05:42.993Z,5.11
2023-01-15T10:08:14.016Z,5.06
2023-01-15T10:10:46.290Z,5.02
2023-01-15T10:13:21.666Z,5.05
2023-01-15T10:15:49.810Z,5.02
2023-01-15T10:18:20.806Z,5.02
2023-01-15T10:21:07.549Z,5.07
2023-01-15T10:23:37.608Z,5.07
2023-01-15T10:26:16.818Z,5.03
2023-01-15T10:28:53.999Z,4.96
2023-01-15T10:31:24.697Z,5.00
2023-01-15T10:34:01.335Z,4.99
2023-01-15T10:36:34.037Z,4.96
2023-01-15T10:39:06.587Z,4.94
2023-01-15T10:41:39.539Z,4.90
2023-01-15T10:44:14.197Z,4.81
2023-01-15T10:46:42.640Z,4.85
2023-01-15T10:49:14.693Z,4.91
2023-01-15T10:51:44.593Z,4.99
2023-01-15T10:54:20.479Z,4.95
2023-01-15T10:56:51.756Z,4.93
2023-01-15T10:59:22.345Z,5.00
2023-01-15T11:01:51.405Z,4.96
2023-01-15T11:04:21.051Z,4.97
2023-01-15T11:06:49.830Z,5.05
2023-01-15T11:09:22.112Z,5.06
2023-01-15T11:12:08.483Z,5.00
2023-01-15T11:14:55.068Z,4.98
2023-01-15T11:17:41.185Z,4.96
2023-01-15T11:20:19.114Z,4.96
2023-01-15T11:22:47.056Z,4.90
2023-01-15T11:25:16.655Z,4.86
2023-01-15T11:27:44.661Z,4.91
2023-01-15T11:30:26.586Z,4.87
2023-01-15T11:32:56.407Z,4.91
2023-01-15T11:35:26.408Z,4.90
2023-01-15T11:38:02.927Z,4.80
2023-01-15T11:40:31.499Z,4.73
2023-01-15T11:43:17.062Z,4.74
2023-01-15T11:46:06.349Z,4.80
2023-01-15T11:49:02.023Z,4.84
2023-01-15T11:51:32.673Z,4.87
2023-01-15T11:54:02.063Z,4.81
2023-01-15T11:56:32.499Z,4.78
2023-01-15T11:59:02.500Z,4.80
2023-01-15T12:01:32.769Z,4.77
2023-01-15T12:04:02.651Z,4.74
2023-01-15T12:06:32.835Z,4.45
2023-01-15T12:09:05.116Z,4.69
2023-01-15T12:11:40.863Z,4.70
2023-01-15T12:14:26.831Z,4.66
2023-01-15T12:16:58.881Z,4.65
2023-01-15T12:19:31.765Z,4.68
2023-01-15T12:22:17.834Z,4.64
2023-01-15T12:24:58.560Z,4.68
2023-01-15T12:27:39.365Z,4.73
2023-01-15T12:30:16.670Z,4.71
2023-01-15T12:32:47.982Z,4.74
2023-01-15T12:35:20.328Z,4.49
2023-01-15T12:37:52.480Z,4.74
2023-01-15T12:40:24.902Z,4.75
2023-01-15T12:43:12.724Z,4.75
2023-01-15T12:45:42.984Z,4.70
2023-01-15T12:48:15.917Z,4.72
2023-01-15T12:50:47.390Z,4.78
2023-01-15T12:53:18.977Z,4.80
2023-01-15T12:55:51.824Z,4.74
2023-01-15T12:58:27.720Z,4.77
2023-01-15T13:00:59.411Z,4.86
2023-01-15T13:03:30.296Z,4.84
2023-01-15T13:06:00.243Z,4.79
2023-01-15T13:08:33.495Z,4.73
2023-01-15T13:11:02.754Z,4.71
2023-01-15T13:13:31.886Z,4.76
2023-01-15T13:16:04.457Z,4.78
2023-01-15T13:18:38.819Z,4.72
2023-01-15T13:21:08.941Z,4.73
2023-01-15T13:23:45.289Z,4.70
2023-01-15T13:26:19.479Z,4.78
2023-01-15T13:28:56.002Z,4.77
2023-01-15T13:31:40.650Z,4.77
2023-01-15T13:34:15.125Z,4.87
2023-01-15T13:36:45.753Z,4.89
2023-01-15T13:39:17.228Z,4.88
2023-01-15T13:42:06.488Z,4.89
2023-01-15T13:44:37.702Z,4.88
2023-01-15T13:47:07.640Z,4.82
2023-01-15T13:49:37.093Z,4.82
2023-01-15T13:52:05.925Z,4.76
2023-01-15T13:54:36.921Z,4.68
2023-01-15T13:57:10.366Z,4.65
2023-01-15T13:59:43.513Z,4.61
2023-01-15T14:02:15.416Z,4.61
2023-01-15T14:04:43.739Z,4.61
2023-01-15T14:07:19.603Z,4.56
2023-01-15T14:09:47.767Z,4.53
2023-01-15T14:12:22.988Z,4.51
2023-01-15T14:14:59.929Z,4.50
2023-01-15T14:17:42.486Z,4.54
2023-01-15T14:20:30.575Z,4.55
2023-01-15T14:23:07.032Z,4.56
2023-01-15T14:25:42.918Z,4.56
2023-01-15T14:28:24.766Z,4.55
2023-01-15T14:31:05.245Z,4.55
2023-01-15T14:33:36.045Z,4.53
2023-01-15T14:36:11.186Z,4.49
2023-01-15T14:38:46.405Z,4.48
2023-01-15T14:41:14.682Z,4.49
2023-01-15T14:43:48.895Z,4.45
2023-01-15T14:46:22.720Z,4.52
2023-01-15T14:48:50.643Z,4.50
2023-01-15T14:51:24.195Z,4.51
2023-01-15T14:53:53.216Z,4.51
2023-01-15T14:56:22.412Z,4.46
2023-01-15T14:58:54.213Z,4.44
2023-01-15T15:01:37.323Z,4.32
2023-01-15T15:04:11.413Z,4.31
2023-01-15T15:06:47.192Z,4.25
2023-01-15T15:09:16.420Z,4.20
2023-01-15T15:12:04.497Z,4.23
2023-01-15T15:14:38.094Z,4.25
2023-01-15T15:17:07.618Z,4.22
2023-01-15T15:19:37.035Z,4.16
2023-01-15T15:22:07.709Z,4.12
2023-01-15T15:24:36.966Z,4.11
2023-01-15T15:27:17.745Z,4.10
2023-01-15T15:29:47.320Z,4.09
2023-01-15T15:32:17.237Z,4.05
2023-01-15T15:34:51.148Z,4.00
2023-01-15T15:37:20.984Z,3.96
2023-01-15T15:39:53.859Z,3.84
2023-01-15T15:42:56.211Z,3.84
2023-01-15T15:45:45.006Z,3.79
2023-01-15T15:48:32.491Z,3.71
2023-01-15T15:51:00.491Z,3.71
2023-01-15T15:53:29.346Z,3.65
2023-01-15T15:55:58.905Z,3.65
2023-01-15T15:58:29.143Z,3.62
2023-01-15T16:01:00.877Z,3.65
2023-01-15T16:03:32.741Z,3.73
2023-01-15T16:06:02.248Z,3.81
2023-01-15T16:08:31.585Z,3.88
2023-01-15T16:11:00.974Z,3.85
2023-01-15T16:13:31.131Z,3.92
2023-01-15T16:16:01.741Z,3.90
2023-01-15T16:18:32.713Z,3.84
2023-01-15T16:21:00.996Z,3.81
2023-01-15T16:23:30.011Z,3.84
2023-01-15T16:26:00.713Z,3.96
2023-01-15T16:28:37.496Z,4.03
2023-01-15T16:31:07.669Z,3.97
2023-01-15T16:33:36.771Z,3.87
2023-01-15T16:36:06.483Z,3.90
2023-01-15T16:38:35.803Z,4.00
2023-01-15T16:41:04.483Z,4.09
2023-01-15T16:43:32.959Z,4.11
2023-01-15T16:46:07.282Z,4.20
2023-01-15T16:48:38.294Z,4.23
2023-01-15T16:51:30.653Z,4.28
2023-01-15T16:53:59.897Z,4.29
2023-01-15T16:56:48.455Z,4.31
2023-01-15T16:59:18.310Z,4.30
2023-01-15T17:01:48.465Z,4.34
2023-01-15T17:04:19.898Z,4.32
2023-01-15T17:06:56.237Z,4.44
2023-01-15T17:09:25.691Z,4.44
2023-01-15T17:11:57.093Z,4.52
2023-01-15T17:14:30.302Z,4.55
2023-01-15T17:17:19.105Z,4.50
2023-01-15T17:19:47.316Z,4.53
2023-01-15T17:22:16.401Z,4.52
2023-01-15T17:24:48.477Z,4.42
2023-01-15T17:27:16.674Z,4.31
2023-01-15T17:29:45.357Z,4.24
2023-01-15T17:32:17.728Z,4.11
2023-01-15T17:34:47.303Z,4.14
2023-01-15T17:37:15.236Z,4.19
2023-01-15T17:39:43.459Z,4.22
2023-01-15T17:42:14.140Z,4.18
2023-01-15T17:44:42.407Z,4.09
2023-01-15T17:47:10.785Z,4.13
2023-01-15T17:49:39.446Z,4.12
2023-01-15T17:52:13.635Z,4.10
2023-01-15T17:55:01.434Z,4.00
2023-01-15T17:57:46.668Z,4.00
2023-01-15T18:00:32.917Z,3.82
2023-01-15T18:03:18.715Z,3.82
2023-01-15T18:05:48.006Z,3.75
2023-01-15T18:08:18.900Z,3.78
2023-01-15T18:10:47.462Z,3.72
2023-01-15T18:13:15.490Z,3.72
2023-01-15T18:15:44.322Z,3.74
2023-01-15T18:18:13.713Z,3.67
2023-01-15T18:20:42.030Z,3.69
2023-01-15T18:23:10.382Z,3.68
2023-01-15T18:25:46.074Z,3.61
2023-01-15T18:28:14.260Z,3.64
2023-01-15T18:30:42.668Z,3.59
2023-01-15T18:33:10.515Z,3.57
2023-01-15T18:35:39.066Z,3.58
2023-01-15T18:38:07.925Z,3.57
2023-01-15T18:40:36.313Z,3.59
2023-01-15T18:43:31.813Z,3.56
2023-01-15T18:46:29.841Z,3.65
2023-01-15T18:48:58.532Z,3.59
2023-01-15T18:51:26.768Z,3.62
2023-01-15T18:53:54.891Z,3.56
2023-01-15T18:56:37.362Z,3.57
2023-01-15T18:59:08.189Z,3.59
2023-01-15T19:01:36.455Z,3.55
2023-01-15T19:04:06.441Z,3.59
2023-01-15T19:06:35.119Z,3.55
2023-01-15T19:09:03.689Z,3.51
2023-01-15T19:11:32.303Z,3.40
2023-01-15T19:14:27.153Z,3.36
2023-01-15T19:17:16.960Z,3.34
2023-01-15T19:19:45.275Z,3.34
2023-01-15T19:22:30.849Z,3.34
2023-01-15T19:24:59.148Z,3.30
2023-01-15T19:27:27.520Z,3.29
2023-01-15T19:29:55.454Z,3.33
2023-01-15T19:32:25.161Z,3.29
2023-01-15T19:34:53.151Z,3.40
2023-01-15T19:37:24.119Z,3.30
2023-01-15T19:39:52.156Z,3.24
2023-01-15T19:42:38.321Z,3.29
2023-01-15T19:45:24.602Z,3.29
2023-01-15T19:48:12.704Z,3.29
2023-01-15T19:50:42.702Z,3.21
2023-01-15T19:53:11.364Z,3.20
2023-01-15T19:55:40.720Z,3.26
2023-01-15T19:58:10.501Z,3.00
2023-01-15T20:00:39.587Z,3.19
2023-01-15T20:03:10.339Z,3.19
2023-01-15T20:05:38.586Z,3.15
2023-01-15T20:08:09.029Z,3.14
2023-01-15T20:10:38.671Z,3.13
2023-01-15T20:13:24.376Z,3.13
2023-01-15T20:15:52.389Z,3.16
2023-01-15T20:18:23.954Z,3.20
2023-01-15T20:20:52.103Z,3.21
2023-01-15T20:23:20.417Z,3.11
2023-01-15T20:25:51.264Z,3.16
2023-01-15T20:28:20.103Z,3.16
2023-01-15T20:30:48.191Z,3.24
2023-01-15T20:33:16.643Z,3.18
2023-01-15T20:35:45.920Z,3.18
2023-01-15T20:38:14.557Z,3.20
2023-01-15T20:40:42.484Z,3.19
2023-01-15T20:43:28.809Z,3.10
2023-01-15T20:45:57.718Z,3.11
2023-01-15T20:48:43.731Z,3.06
2023-01-15T20:51:13.933Z,3.00
2023-01-15T20:53:42.393Z,2.97
2023-01-15T20:56:14.292Z,3.01
2023-01-15T20:58:42.794Z,2.92
2023-01-15T21:01:11.250Z,2.91
2023-01-15T21:03:40.448Z,2.99
2023-01-15T21:06:09.280Z,3.01
2023-01-15T21:08:41.277Z,3.08
2023-01-15T21:11:09.265Z,3.12
2023-01-15T21:13:44.855Z,3.06
2023-01-15T21:16:13.736Z,3.16
2023-01-15T21:18:45.010Z,3.26
2023-01-15T21:21:14.303Z,3.31
2023-01-15T21:23:45.703Z,3.30
2023-01-15T21:26:14.014Z,3.34
2023-01-15T21:28:44.290Z,3.33
2023-01-15T21:31:14.040Z,3.34
2023-01-15T21:33:42.292Z,3.38
2023-01-15T21:36:11.430Z,3.34
2023-01-15T21:38:39.965Z,3.36
2023-01-15T21:41:09.941Z,3.40
2023-01-15T21:43:56.124Z,3.38
2023-01-15T21:46:27.604Z,3.44
2023-01-15T21:48:56.518Z,3.07
2023-01-15T21:51:24.542Z,3.42
2023-01-15T21:53:55.080Z,3.39
2023-01-15T21:56:24.806Z,3.29
2023-01-15T21:58:53.272Z,3.32
2023-01-15T22:01:21.585Z,3.37
2023-01-15T22:03:49.996Z,3.35
2023-01-15T22:06:18.664Z,3.33
2023-01-15T22:08:47.202Z,3.26
2023-01-15T22:11:15.413Z,3.25
2023-01-15T22:13:45.562Z,3.21
2023-01-15T22:16:13.511Z,3.22
2023-01-15T22:18:42.029Z,3.18
2023-01-15T22:21:15.271Z,3.16
2023-01-15T22:23:43.933Z,3.11
2023-01-15T22:26:17.478Z,3.15
2023-01-15T22:28:47.205Z,3.12
2023-01-15T22:31:17.734Z,3.12
2023-01-15T22:33:46.245Z,3.13
2023-01-15T22:36:15.575Z,3.09
2023-01-15T22:38:44.185Z,3.09
2023-01-15T22:41:12.106Z,3.10
2023-01-15T22:43:40.293Z,3.03
2023-01-15T22:46:13.844Z,3.05
2023-01-15T22:48:42.045Z,3.03
2023-01-15T22:51:10.016Z,3.02
2023-01-15T22:53:38.180Z,3.06
2023-01-15T22:56:06.589Z,3.13
2023-01-15T22:58:34.728Z,3.17
2023-01-15T23:01:02.982Z,3.07
2023-01-15T23:03:35.038Z,3.02
2023-01-15T23:06:03.756Z,3.04
2023-01-15T23:08:32.815Z,2.98
2023-01-15T23:11:00.801Z,2.96
2023-01-15T23:13:31.655Z,2.96
2023-01-15T23:16:01.223Z,3.03
2023-01-15T23:18:34.851Z,2.99
2023-01-15T23:21:06.029Z,3.06
2023-01-15T23:23:34.385Z,3.03
2023-01-15T23:26:02.630Z,3.00
2023-01-15T23:28:31.210Z,2.98
2023-01-15T23:30:59.166Z,2.91
2023-01-15T23:33:27.674Z,2.87
2023-01-15T23:35:58.740Z,2.86
2023-01-15T23:38:27.176Z,2.91
2023-01-15T23:40:57.905Z,3.00
2023-01-15T23:43:44.554Z,3.02
2023-01-15T23:46:32.398Z,2.95
2023-01-15T23:49:00.758Z,2.96
2023-01-15T23:51:30.229Z,2.96
2023-01-15T23:53:58.576Z,2.99
2023-01-15T23:56:26.744Z,3.02
2023-01-15T23:58:55.006Z,2.97
